createdAt,value
2019-01-18T00:04:10.529Z,0.00
2019-01-18T00:09:04.056Z,0.00
2019-01-18T00:13:56.493Z,0.00
2019-01-18T00:18:48.822Z,0.10
2019-01-18T00:23:41.189Z,0.20
2019-01-18T00:28:33.694Z,0.30
2019-01-18T00:33:25.888Z,0.30
2019-01-18T00:38:18.320Z,0.40
2019-01-18T00:43:10.368Z,0.40
2019-01-18T00:48:02.693Z,0.30
2019-01-18T00:52:55.129Z,0.30
2019-01-18T00:57:48.794Z,0.30
2019-01-18T01:02:41.254Z,0.20
2019-01-18T01:07:33.683Z,0.20
2019-01-18T01:12:26.166Z,0.20
2019-01-18T01:17:18.584Z,0.20
2019-01-18T01:22:10.720Z,0.40
2019-01-18T01:27:03.833Z,0.40
2019-01-18T01:31:56.117Z,0.40
2019-01-18T01:36:48.288Z,0.40
2019-01-18T01:41:40.757Z,0.40
2019-01-18T01:46:33.257Z,0.40
2019-01-18T01:51:25.348Z,0.50
2019-01-18T01:56:17.596Z,0.50
2019-01-18T02:01:09.800Z,0.60
2019-01-18T02:06:02.132Z,0.70
2019-01-18T02:10:54.244Z,0.80
2019-01-18T02:15:46.769Z,0.80
2019-01-18T02:20:38.785Z,0.70
2019-01-18T02:25:30.946Z,0.60
2019-01-18T02:30:25.914Z,0.60
2019-01-18T02:35:18.528Z,0.70
2019-01-18T02:40:14.703Z,0.90
2019-01-18T02:45:18.146Z,1.00
2019-01-18T02:50:11.698Z,1.10
2019-01-18T02:55:05.726Z,1.10
2019-01-18T03:00:04.642Z,1.00
2019-01-18T03:04:52.055Z,0.90
2019-01-18T03:09:44.505Z,0.80
2019-01-18T03:14:36.913Z,0.80
2019-01-18T03:19:29.318Z,0.80
2019-01-18T03:24:21.401Z,0.80
2019-01-18T03:29:13.677Z,0.80
2019-01-18T03:34:05.856Z,0.90
2019-01-18T03:38:58.169Z,1.00
2019-01-18T03:43:50.277Z,1.10
2019-01-18T03:48:42.656Z,1.10
2019-01-18T03:53:34.929Z,1.20
2019-01-18T03:58:27.228Z,1.20
2019-01-18T04:03:19.434Z,1.30
2019-01-18T04:08:11.677Z,1.20
2019-01-18T04:13:03.721Z,1.00
2019-01-18T04:17:55.922Z,0.80
2019-01-18T04:22:48.349Z,0.70
2019-01-18T04:27:40.750Z,0.50
2019-01-18T04:32:33.065Z,0.30
2019-01-18T04:37:25.310Z,0.10
2019-01-18T04:42:17.236Z,0.00
2019-01-18T04:47:09.668Z,-0.20
2019-01-18T04:52:02.257Z,-0.30
2019-01-18T04:56:54.426Z,-0.40
2019-01-18T05:01:46.814Z,-0.30
2019-01-18T05:06:39.282Z,-0.30
2019-01-18T05:11:31.736Z,-0.20
2019-01-18T05:16:24.135Z,-0.20
2019-01-18T05:21:16.267Z,-0.20
2019-01-18T05:26:08.878Z,-0.30
2019-01-18T05:31:00.958Z,-0.40
2019-01-18T05:35:53.349Z,-0.50
2019-01-18T05:40:45.691Z,-0.50
2019-01-18T05:45:37.848Z,-0.60
2019-01-18T05:50:30.295Z,-0.70
2019-01-18T05:55:22.816Z,-0.80
2019-01-18T06:00:19.773Z,-0.90
2019-01-18T06:05:15.240Z,-0.90
2019-01-18T06:10:08.541Z,-0.90
2019-01-18T06:15:00.656Z,-0.90
2019-01-18T06:19:52.637Z,-0.90
2019-01-18T06:24:45.005Z,-0.70
2019-01-18T06:29:37.121Z,-0.60
2019-01-18T06:34:29.464Z,-0.50
2019-01-18T06:39:21.635Z,-0.30
2019-01-18T06:44:13.846Z,-0.20
2019-01-18T06:49:06.636Z,-0.30
2019-01-18T06:53:58.597Z,-0.30
2019-01-18T06:58:50.800Z,-0.20
2019-01-18T07:03:43.136Z,-0.20
2019-01-18T07:08:35.205Z,-0.10
2019-01-18T07:13:27.369Z,0.00
2019-01-18T07:18:19.268Z,0.10
2019-01-18T07:23:11.714Z,0.20
2019-01-18T07:28:04.184Z,0.20
2019-01-18T07:32:56.341Z,0.20
2019-01-18T07:37:48.524Z,0.20
2019-01-18T07:42:40.773Z,0.20
2019-01-18T07:47:33.129Z,0.20
2019-01-18T07:52:25.369Z,0.30
2019-01-18T07:57:17.681Z,0.40
2019-01-18T08:02:09.925Z,0.50
2019-01-18T08:07:02.473Z,0.50
2019-01-18T08:11:54.455Z,0.50
2019-01-18T08:16:46.668Z,0.50
2019-01-18T08:21:38.970Z,0.60
2019-01-18T08:26:31.149Z,0.70
2019-01-18T08:31:28.881Z,0.80
2019-01-18T08:36:16.989Z,1.00
2019-01-18T08:41:09.251Z,1.10
2019-01-18T08:46:01.285Z,1.40
2019-01-18T08:50:53.421Z,1.40
2019-01-18T08:55:45.834Z,1.50
2019-01-18T09:00:38.202Z,1.60
2019-01-18T09:05:30.525Z,1.70
2019-01-18T09:10:27.932Z,1.90
2019-01-18T09:15:20.373Z,2.10
2019-01-18T09:20:21.024Z,2.30
2019-01-18T09:25:13.424Z,3.00
2019-01-18T09:30:11.691Z,3.80
2019-01-18T09:35:05.730Z,3.90
2019-01-18T09:39:57.865Z,3.60
2019-01-18T09:44:50.050Z,3.20
2019-01-18T09:49:42.884Z,2.90
2019-01-18T09:54:34.860Z,2.70
2019-01-18T09:59:26.673Z,2.50
2019-01-18T10:04:18.884Z,2.30
2019-01-18T10:09:11.384Z,2.20
2019-01-18T10:14:03.801Z,2.30
2019-01-18T10:18:55.968Z,2.30
2019-01-18T10:23:48.205Z,2.50
2019-01-18T10:28:40.660Z,2.70
2019-01-18T10:33:33.050Z,2.90
2019-01-18T10:38:25.486Z,3.40
2019-01-18T10:43:18.584Z,4.30
2019-01-18T10:48:11.023Z,5.10
2019-01-18T10:53:03.250Z,5.30
2019-01-18T10:57:55.493Z,5.20
2019-01-18T11:02:47.689Z,4.90
2019-01-18T11:07:40.064Z,4.30
2019-01-18T11:12:32.583Z,4.00
2019-01-18T11:17:25.055Z,4.00
2019-01-18T11:22:17.417Z,3.90
2019-01-18T11:27:09.643Z,4.00
2019-01-18T11:32:01.843Z,4.30
2019-01-18T11:36:56.496Z,4.50
2019-01-18T11:41:47.733Z,4.20
2019-01-18T11:46:39.781Z,4.10
2019-01-18T11:51:32.236Z,4.20
2019-01-18T11:56:24.360Z,5.00
2019-01-18T12:01:16.508Z,4.90
2019-01-18T12:06:08.623Z,4.60
2019-01-18T12:11:00.688Z,4.30
2019-01-18T12:15:52.808Z,4.30
2019-01-18T12:20:44.990Z,4.40
2019-01-18T12:25:37.601Z,4.40
2019-01-18T12:30:33.662Z,4.30
2019-01-18T12:35:25.832Z,4.40
2019-01-18T12:40:17.899Z,4.90
2019-01-18T12:45:13.489Z,4.80
2019-01-18T12:50:08.629Z,4.60
2019-01-18T12:55:00.737Z,4.50
2019-01-18T12:59:52.851Z,4.20
2019-01-18T13:04:45.132Z,3.90
2019-01-18T13:09:37.356Z,3.60
2019-01-18T13:14:29.822Z,3.50
2019-01-18T13:19:21.975Z,3.40
2019-01-18T13:24:14.129Z,3.30
2019-01-18T13:29:06.104Z,3.30
2019-01-18T13:33:58.451Z,3.20
2019-01-18T13:38:50.618Z,3.20
2019-01-18T13:43:43.088Z,3.20
2019-01-18T13:48:35.520Z,3.20
2019-01-18T13:53:27.668Z,3.20
2019-01-18T13:58:19.932Z,3.30
2019-01-18T14:03:12.115Z,3.40
2019-01-18T14:08:04.400Z,3.50
2019-01-18T14:12:56.789Z,3.50
2019-01-18T14:17:49.062Z,3.50
2019-01-18T14:22:41.539Z,3.50
2019-01-18T14:27:34.023Z,3.40
2019-01-18T14:32:26.382Z,3.30
2019-01-18T14:37:18.828Z,3.10
2019-01-18T14:42:11.232Z,3.00
2019-01-18T14:47:03.712Z,2.90
2019-01-18T14:51:55.835Z,2.80
2019-01-18T14:56:47.913Z,2.80
2019-01-18T15:01:40.253Z,2.80
2019-01-18T15:06:32.393Z,2.90
2019-01-18T15:11:24.845Z,2.90
2019-01-18T15:16:17.036Z,2.90
2019-01-18T15:21:09.346Z,2.90
2019-01-18T15:26:01.685Z,2.90
2019-01-18T15:30:54.017Z,2.80
2019-01-18T15:35:46.540Z,2.80
2019-01-18T15:40:41.820Z,2.80
2019-01-18T15:45:33.958Z,2.60
2019-01-18T15:50:28.237Z,2.30
2019-01-18T15:55:20.430Z,2.10
2019-01-18T16:00:21.701Z,1.90
2019-01-18T16:05:14.141Z,1.70
2019-01-18T16:10:09.965Z,1.60
2019-01-18T16:15:02.338Z,1.30
2019-01-18T16:19:54.765Z,1.10
2019-01-18T16:24:47.149Z,1.00
2019-01-18T16:29:39.337Z,0.80
2019-01-18T16:34:31.639Z,0.70
2019-01-18T16:39:23.840Z,0.60
2019-01-18T16:44:15.990Z,0.50
2019-01-18T16:49:08.468Z,0.40
2019-01-18T16:54:00.688Z,0.30
2019-01-18T16:58:52.828Z,0.10
2019-01-18T17:03:45.396Z,0.00
2019-01-18T17:08:37.624Z,-0.10
2019-01-18T17:13:30.149Z,-0.20
2019-01-18T17:18:24.329Z,-0.30
2019-01-18T17:23:16.909Z,-0.40
2019-01-18T17:28:10.171Z,-0.40
2019-01-18T17:33:02.540Z,-0.50
2019-01-18T17:38:06.289Z,-0.60
2019-01-18T17:43:13.053Z,-0.60
2019-01-18T17:48:23.214Z,-0.70
2019-01-18T17:53:18.496Z,-0.70
2019-01-18T17:58:19.824Z,-0.80
2019-01-18T18:03:24.263Z,-0.90
2019-01-18T18:08:43.215Z,-0.90
2019-01-18T18:13:44.977Z,-0.90
2019-01-18T18:18:52.222Z,-0.90
2019-01-18T18:24:03.626Z,-1.00
2019-01-18T18:29:16.556Z,-1.10
2019-01-18T18:34:32.888Z,-1.10
2019-01-18T18:39:33.838Z,-1.20
2019-01-18T18:44:49.932Z,-1.20
2019-01-18T18:50:11.985Z,-1.20
2019-01-18T18:55:16.349Z,-1.20
2019-01-18T19:00:35.421Z,-1.20
2019-01-18T19:05:39.309Z,-1.30
2019-01-18T19:10:34.489Z,-1.30
2019-01-18T19:15:32.384Z,-1.30
2019-01-18T19:20:27.552Z,-1.40
2019-01-18T19:25:31.530Z,-1.40
2019-01-18T19:30:41.745Z,-1.30
2019-01-18T19:35:49.193Z,-1.40
2019-01-18T19:41:00.585Z,-1.30
2019-01-18T19:46:05.064Z,-1.40
2019-01-18T19:51:15.075Z,-1.50
2019-01-18T19:56:16.917Z,-1.50
2019-01-18T20:01:20.573Z,-1.50
2019-01-18T20:06:33.794Z,-1.60
2019-01-18T20:11:43.141Z,-1.60
2019-01-18T20:16:41.503Z,-1.70
2019-01-18T20:21:45.508Z,-1.70
2019-01-18T20:26:55.397Z,-1.80
2019-01-18T20:31:53.214Z,-1.80
2019-01-18T20:36:57.418Z,-1.90
2019-01-18T20:42:09.597Z,-1.90
2019-01-18T20:47:04.703Z,-2.00
2019-01-18T20:52:11.469Z,-2.10
2019-01-18T20:57:21.468Z,-2.10
2019-01-18T21:02:39.841Z,-2.10
2019-01-18T21:07:46.138Z,-2.20
2019-01-18T21:12:48.386Z,-2.10
2019-01-18T21:18:01.479Z,-2.30
2019-01-18T21:23:05.015Z,-2.30
2019-01-18T21:28:08.944Z,-2.40
2019-01-18T21:33:13.211Z,-2.40
2019-01-18T21:38:17.525Z,-2.40
2019-01-18T21:43:15.568Z,-2.50
2019-01-18T21:48:36.389Z,-2.50
2019-01-18T21:53:55.592Z,-2.60
2019-01-18T21:59:05.672Z,-2.60
2019-01-18T22:04:09.860Z,-2.70
2019-01-18T22:09:11.077Z,-2.70
2019-01-18T22:14:15.793Z,-2.70
2019-01-18T22:19:30.464Z,-2.80
2019-01-18T22:24:59.780Z,-2.80
2019-01-18T22:30:23.137Z,-2.90
2019-01-18T22:35:44.269Z,-2.90
2019-01-18T22:40:57.570Z,-3.00
2019-01-18T22:45:52.626Z,-3.10
2019-01-18T22:51:12.905Z,-3.20
2019-01-18T22:56:08.550Z,-3.20
2019-01-18T23:01:21.302Z,-3.20
2019-01-18T23:06:25.777Z,-3.20
2019-01-18T23:11:32.923Z,-3.20
2019-01-18T23:16:43.073Z,-3.30
2019-01-18T23:21:44.301Z,-3.20
2019-01-18T23:26:55.910Z,-3.20
2019-01-18T23:31:50.993Z,-3.30
2019-01-18T23:36:48.473Z,-3.30
2019-01-18T23:42:12.083Z,-3.40
2019-01-18T23:47:07.556Z,-3.40
2019-01-18T23:52:08.145Z,-3.40
2019-01-18T23:57:21.096Z,-3.50
